La rose des vents
Donnes mto: Semaine 27/10/08 - 02/11/08 (S 44)
Date Horaire Temp. E. Hum. E. P.atmo. Pluie Vent 1mn Direction Ensoleilleme Ev.Tr. Solaire P. de rose Temp au vent Rafales
27/10/2008 00:00 14,0 C 92 % 1018,1 hPa 0,0 l/m 5,9 km/h (2 Bft) O-NO 0,00 h 0,025 mm 0 W/m 12,6 C 14,0 C 7,2 km/h (2 Bft)
27/10/2008 01:00 13,6 C 91 % 1017,7 hPa 0,0 l/m 4,3 km/h (1 Bft) O-NO 0,00 h 0,025 mm 0 W/m 12,3 C 13,6 C 5,5 km/h (1 Bft)
27/10/2008 02:00 13,3 C 91 % 1017,3 hPa 0,0 l/m 2,8 km/h (1 Bft) NO 0,00 h 0,025 mm 0 W/m 11,8 C 13,3 C 3,9 km/h (1 Bft)
27/10/2008 03:00 13,1 C 90 % 1016,4 hPa 0,0 l/m 4,0 km/h (1 Bft) O-NO 0,00 h 0,025 mm 0 W/m 11,5 C 13,1 C 5,3 km/h (1 Bft)
27/10/2008 04:00 13,5 C 90 % 1015,9 hPa 0,0 l/m 6,7 km/h (2 Bft) O 0,00 h 0,025 mm 0 W/m 11,9 C 13,5 C 8,1 km/h (2 Bft)
27/10/2008 05:00 13,5 C 90 % 1015,5 hPa 0,0 l/m 6,0 km/h (2 Bft) O-NO 0,00 h 0,025 mm 0 W/m 11,9 C 13,5 C 7,4 km/h (2 Bft)
27/10/2008 06:00 13,2 C 89 % 1015,1 hPa 0,0 l/m 4,7 km/h (1 Bft) O-NO 0,00 h 0,025 mm 6 W/m 11,4 C 13,2 C 5,9 km/h (2 Bft)
27/10/2008 07:00 13,3 C 89 % 1014,9 hPa 0,0 l/m 3,6 km/h (1 Bft) O-NO 0,75 h 0,000 mm 57 W/m 11,5 C 13,3 C 4,6 km/h (1 Bft)
27/10/2008 08:00 15,1 C 87 % 1014,7 hPa 0,0 l/m 0,6 km/h (0 Bft) NO 0,67 h 0,051 mm 161 W/m 12,9 C 15,1 C 1,2 km/h (1 Bft)
27/10/2008 09:00 17,2 C 80 % 1014,7 hPa 0,0 l/m 3,6 km/h (1 Bft) S 1,00 h 0,076 mm 309 W/m 13,7 C 17,2 C 5,5 km/h (1 Bft)
27/10/2008 10:00 18,3 C 78 % 1014,1 hPa 0,0 l/m 6,0 km/h (2 Bft) S 0,95 h 0,178 mm 372 W/m 14,4 C 18,3 C 9,2 km/h (2 Bft)
27/10/2008 11:00 19,5 C 69 % 1013,4 hPa 0,0 l/m 9,1 km/h (2 Bft) S-SO 0,90 h 0,229 mm 473 W/m 13,8 C 19,5 C 13,0 km/h (3 Bft)
27/10/2008 12:00 21,2 C 54 % 1011,9 hPa 0,0 l/m 14,7 km/h (3 Bft) S-SO 1,00 h 0,305 mm 527 W/m 11,5 C 21,2 C 20,2 km/h (4 Bft)
27/10/2008 13:00 21,6 C 48 % 1010,5 hPa 0,0 l/m 13,7 km/h (3 Bft) SO 0,90 h 0,406 mm 371 W/m 10,1 C 21,6 C 19,4 km/h (3 Bft)
27/10/2008 14:00 21,5 C 48 % 1009,4 hPa 0,0 l/m 20,5 km/h (4 Bft) SO 1,00 h 0,330 mm 320 W/m 9,9 C 21,5 C 27,0 km/h (4 Bft)
27/10/2008 15:00 20,6 C 55 % 1009,0 hPa 0,0 l/m 17,0 km/h (3 Bft) S 0,30 h 0,356 mm 164 W/m 11,0 C 20,6 C 22,2 km/h (4 Bft)
27/10/2008 16:00 18,8 C 73 % 1008,7 hPa 0,0 l/m 12,6 km/h (3 Bft) S 0,20 h 0,203 mm 77 W/m 13,8 C 18,8 C 17,0 km/h (3 Bft)
27/10/2008 17:00 17,7 C 74 % 1008,8 hPa 0,0 l/m 11,4 km/h (2 Bft) SO 0,12 h 0,102 mm 15 W/m 13,0 C 17,7 C 14,6 km/h (3 Bft)
27/10/2008 18:00 17,2 C 74 % 1008,7 hPa 0,0 l/m 18,3 km/h (3 Bft) SO 0,00 h 0,051 mm 0 W/m 12,6 C 17,2 C 22,3 km/h (4 Bft)
27/10/2008 19:00 16,1 C 79 % 1008,7 hPa 0,0 l/m 16,5 km/h (3 Bft) O-SO 0,00 h 0,076 mm 0 W/m 12,4 C 16,1 C 21,0 km/h (4 Bft)
27/10/2008 20:00 15,1 C 82 % 1008,9 hPa 0,0 l/m 13,5 km/h (3 Bft) O-SO 0,00 h 0,051 mm 0 W/m 12,1 C 15,1 C 18,4 km/h (3 Bft)
27/10/2008 21:00 14,5 C 84 % 1008,9 hPa 0,0 l/m 16,7 km/h (3 Bft) O-SO 0,00 h 0,051 mm 0 W/m 11,9 C 14,5 C 20,5 km/h (4 Bft)
27/10/2008 22:00 14,3 C 82 % 1008,8 hPa 0,0 l/m 13,7 km/h (3 Bft) SO 0,00 h 0,051 mm 0 W/m 11,3 C 14,3 C 17,5 km/h (3 Bft)
27/10/2008 23:00 13,0 C 80 % 1008,7 hPa 0,0 l/m 7,5 km/h (2 Bft) NO 0,00 h 0,051 mm 0 W/m 9,7 C 13,0 C 9,9 km/h (2 Bft)
28/10/2008 00:00 13,5 C 73 % 1008,1 hPa 0,0 l/m 4,0 km/h (1 Bft) NO 0,00 h 0,025 mm 0 W/m 8,8 C 13,5 C 5,8 km/h (2 Bft)
28/10/2008 01:00 13,8 C 72 % 1007,7 hPa 0,0 l/m 2,5 km/h (1 Bft) N-NO 0,00 h 0,025 mm 0 W/m 8,9 C 13,8 C 4,3 km/h (1 Bft)
28/10/2008 02:00 13,9 C 68 % 1007,3 hPa 0,0 l/m 2,0 km/h (1 Bft) NO 0,00 h 0,025 mm 0 W/m 8,1 C 13,9 C 3,6 km/h (1 Bft)
28/10/2008 03:00 14,0 C 67 % 1006,7 hPa 0,0 l/m 2,1 km/h (1 Bft) NO 0,00 h 0,025 mm 0 W/m 8,1 C 14,0 C 3,9 km/h (1 Bft)
28/10/2008 04:00 13,7 C 69 % 1006,1 hPa 0,0 l/m 3,7 km/h (1 Bft) NO 0,00 h 0,025 mm 0 W/m 8,1 C 13,7 C 5,6 km/h (1 Bft)
28/10/2008 05:00 13,0 C 72 % 1005,9 hPa 0,0 l/m 1,8 km/h (1 Bft) NO 0,00 h 0,025 mm 0 W/m 8,0 C 13,0 C 3,1 km/h (1 Bft)
28/10/2008 06:00 13,1 C 75 % 1005,3 hPa 0,0 l/m 4,3 km/h (1 Bft) O 0,00 h 0,025 mm 0 W/m 8,7 C 13,1 C 6,2 km/h (2 Bft)
28/10/2008 07:00 13,3 C 76 % 1005,1 hPa 0,0 l/m 3,1 km/h (1 Bft) N-NO 0,60 h 0,025 mm 50 W/m 9,0 C 13,3 C 4,3 km/h (1 Bft)
28/10/2008 08:00 15,8 C 67 % 1005,2 hPa 0,0 l/m 3,0 km/h (1 Bft) E 0,95 h 0,051 mm 195 W/m 9,7 C 15,8 C 4,5 km/h (1 Bft)
28/10/2008 09:00 17,2 C 61 % 1005,3 hPa 0,0 l/m 3,2 km/h (1 Bft) N-NO 0,95 h 0,127 mm 359 W/m 9,7 C 17,2 C 5,7 km/h (1 Bft)
28/10/2008 10:00 20,0 C 52 % 1004,7 hPa 0,0 l/m 4,9 km/h (1 Bft) E 0,45 h 0,229 mm 326 W/m 9,7 C 20,0 C 8,8 km/h (2 Bft)
28/10/2008 11:00 19,6 C 66 % 1004,3 hPa 0,0 l/m 8,0 km/h (2 Bft) E 0,63 h 0,229 mm 416 W/m 13,0 C 19,6 C 12,2 km/h (2 Bft)
28/10/2008 12:00 20,5 C 65 % 1003,1 hPa 0,0 l/m 7,4 km/h (2 Bft) E-NE 0,95 h 0,279 mm 456 W/m 13,8 C 20,5 C 11,0 km/h (2 Bft)
28/10/2008 13:00 20,1 C 63 % 1001,7 hPa 0,0 l/m 7,4 km/h (2 Bft) E 0,27 h 0,305 mm 264 W/m 12,8 C 20,1 C 11,3 km/h (2 Bft)
28/10/2008 14:00 18,3 C 76 % 1000,7 hPa 0,6 l/m 6,9 km/h (2 Bft) E 0,00 h 0,203 mm 57 W/m 13,8 C 18,3 C 11,2 km/h (2 Bft)
28/10/2008 15:00 16,0 C 88 % 1000,8 hPa 4,2 l/m 7,5 km/h (2 Bft) E 0,00 h 0,051 mm 15 W/m 14,0 C 16,0 C 11,1 km/h (2 Bft)
28/10/2008 16:00 15,2 C 92 % 1000,4 hPa 7,6 l/m 4,4 km/h (1 Bft) N-NE 0,00 h 0,025 mm 11 W/m 13,9 C 15,2 C 6,9 km/h (2 Bft)
28/10/2008 17:00 14,7 C 93 % 999,9 hPa 10,6 l/m 6,3 km/h (2 Bft) E 0,00 h 0,025 mm 0 W/m 13,5 C 14,7 C 8,9 km/h (2 Bft)
28/10/2008 18:00 14,0 C 94 % 1000,0 hPa 0,6 l/m 5,1 km/h (1 Bft) NE 0,00 h 0,000 mm 0 W/m 13,0 C 14,0 C 7,5 km/h (2 Bft)
28/10/2008 19:00 13,2 C 94 % 999,5 hPa 0,0 l/m 3,6 km/h (1 Bft) NE 0,00 h 0,025 mm 0 W/m 12,3 C 13,2 C 5,2 km/h (1 Bft)
28/10/2008 20:00 13,0 C 95 % 999,3 hPa 0,0 l/m 0,6 km/h (0 Bft) NE 0,00 h 0,000 mm 0 W/m 12,2 C 13,0 C 0,9 km/h (0 Bft)
28/10/2008 21:00 13,3 C 95 % 999,3 hPa 0,0 l/m 2,1 km/h (1 Bft) NE 0,00 h 0,000 mm 0 W/m 12,5 C 13,3 C 3,8 km/h (1 Bft)
28/10/2008 22:00 13,5 C 95 % 999,4 hPa 0,0 l/m 2,0 km/h (1 Bft) N-NE 0,00 h 0,000 mm 0 W/m 12,7 C 13,5 C 3,3 km/h (1 Bft)
28/10/2008 23:00 13,6 C 95 % 999,0 hPa 0,0 l/m 2,4 km/h (1 Bft) N-NE 0,00 h 0,000 mm 0 W/m 12,8 C 13,6 C 3,8 km/h (1 Bft)
29/10/2008 00:00 13,7 C 95 % 998,8 hPa 0,2 l/m 3,6 km/h (1 Bft) N-NE 0,00 h 0,000 mm 0 W/m 12,9 C 13,7 C 5,4 km/h (1 Bft)
29/10/2008 01:00 13,7 C 95 % 998,3 hPa 0,0 l/m 4,1 km/h (1 Bft) N-NE 0,00 h 0,000 mm 0 W/m 12,9 C 13,7 C 6,4 km/h (2 Bft)
29/10/2008 02:00 13,8 C 96 % 997,6 hPa 1,4 l/m 4,5 km/h (1 Bft) N-NE 0,00 h 0,000 mm 0 W/m 13,1 C 13,8 C 7,0 km/h (2 Bft)
29/10/2008 03:00 14,0 C 96 % 996,6 hPa 2,0 l/m 5,6 km/h (1 Bft) S-SO 0,00 h 0,000 mm 0 W/m 13,4 C 14,0 C 8,5 km/h (2 Bft)
29/10/2008 04:00 14,5 C 96 % 996,5 hPa 0,0 l/m 1,4 km/h (1 Bft) S 0,00 h 0,000 mm 0 W/m 13,8 C 14,5 C 2,6 km/h (1 Bft)
29/10/2008 05:00 14,6 C 96 % 996,7 hPa 0,2 l/m 3,7 km/h (1 Bft) S-SO 0,00 h 0,000 mm 0 W/m 14,0 C 14,6 C 5,8 km/h (1 Bft)
29/10/2008 06:00 14,6 C 96 % 997,1 hPa 0,2 l/m 5,5 km/h (1 Bft) S 0,00 h 0,000 mm 0 W/m 14,0 C 14,6 C 7,8 km/h (2 Bft)
29/10/2008 07:00 14,3 C 97 % 997,5 hPa 0,6 l/m 5,4 km/h (1 Bft) S 0,00 h 0,000 mm 9 W/m 13,8 C 14,3 C 7,6 km/h (2 Bft)
29/10/2008 08:00 14,2 C 97 % 998,1 hPa 0,6 l/m 2,0 km/h (1 Bft) S-SE 0,00 h 0,000 mm 34 W/m 13,8 C 14,2 C 3,3 km/h (1 Bft)
29/10/2008 09:00 14,7 C 97 % 998,3 hPa 0,0 l/m 0,3 km/h (0 Bft) S-SE 0,00 h 0,025 mm 92 W/m 14,2 C 14,7 C 0,8 km/h (0 Bft)
29/10/2008 10:00 15,3 C 97 % 998,6 hPa 0,0 l/m 4,0 km/h (1 Bft) E 0,00 h 0,051 mm 124 W/m 14,8 C 15,3 C 6,3 km/h (2 Bft)
29/10/2008 11:00 14,6 C 97 % 999,1 hPa 0,0 l/m 5,7 km/h (1 Bft) S-SE 0,00 h 0,076 mm 178 W/m 14,1 C 14,6 C 7,8 km/h (2 Bft)
29/10/2008 12:00 14,9 C 96 % 998,3 hPa 1,0 l/m 1,3 km/h (1 Bft) SO 0,00 h 0,102 mm 87 W/m 14,2 C 14,9 C 2,3 km/h (1 Bft)
29/10/2008 13:00 14,4 C 95 % 998,2 hPa 3,6 l/m 2,3 km/h (1 Bft) E 0,00 h 0,051 mm 46 W/m 13,6 C 14,4 C 3,8 km/h (1 Bft)
29/10/2008 14:00 14,1 C 95 % 998,1 hPa 0,4 l/m 2,1 km/h (1 Bft) S-SE 0,00 h 0,025 mm 63 W/m 13,4 C 14,1 C 3,5 km/h (1 Bft)
29/10/2008 15:00 13,6 C 96 % 998,3 hPa 0,2 l/m 1,9 km/h (1 Bft) E-SE 0,00 h 0,025 mm 39 W/m 12,9 C 13,6 C 3,0 km/h (1 Bft)
29/10/2008 16:00 13,3 C 96 % 998,3 hPa 1,4 l/m 0,3 km/h (0 Bft) SE 0,00 h 0,025 mm 14 W/m 12,7 C 13,3 C 0,6 km/h (0 Bft)
29/10/2008 17:00 13,0 C 96 % 997,6 hPa 0,2 l/m 0,2 km/h (0 Bft) SE 0,00 h 0,000 mm 11 W/m 12,4 C 13,0 C 0,5 km/h (0 Bft)
29/10/2008 18:00 12,5 C 96 % 997,1 hPa 0,0 l/m 2,7 km/h (1 Bft) NO 0,00 h 0,000 mm 0 W/m 11,9 C 12,5 C 4,2 km/h (1 Bft)
29/10/2008 19:00 12,1 C 96 % 996,4 hPa 0,6 l/m 3,1 km/h (1 Bft) O-NO 0,00 h 0,000 mm 0 W/m 11,4 C 12,1 C 4,9 km/h (1 Bft)
29/10/2008 20:00 12,0 C 96 % 995,7 hPa 1,6 l/m 2,8 km/h (1 Bft) S 0,00 h 0,000 mm 0 W/m 11,4 C 12,0 C 4,3 km/h (1 Bft)
29/10/2008 21:00 11,7 C 96 % 995,6 hPa 0,4 l/m 12,6 km/h (3 Bft) SO 0,00 h 0,000 mm 0 W/m 11,0 C 11,7 C 17,1 km/h (3 Bft)
29/10/2008 22:00 10,7 C 96 % 995,3 hPa 0,0 l/m 14,0 km/h (3 Bft) O-SO 0,00 h 0,025 mm 0 W/m 10,1 C 10,7 C 18,7 km/h (3 Bft)
29/10/2008 23:00 10,1 C 96 % 995,0 hPa 0,0 l/m 18,2 km/h (3 Bft) SO 0,00 h 0,025 mm 0 W/m 9,5 C 9,1 C 22,6 km/h (4 Bft)
30/10/2008 00:00 8,6 C 95 % 995,1 hPa 0,0 l/m 26,8 km/h (4 Bft) SO 0,00 h 0,025 mm 0 W/m 7,9 C 5,0 C 33,5 km/h (5 Bft)
30/10/2008 01:00 6,1 C 96 % 994,3 hPa 0,0 l/m 30,2 km/h (5 Bft) SO 0,00 h 0,025 mm 0 W/m 5,5 C 1,5 C 38,4 km/h (5 Bft)
30/10/2008 02:00 5,2 C 95 % 994,0 hPa 0,0 l/m 29,8 km/h (5 Bft) SO 0,00 h 0,025 mm 0 W/m 4,4 C 0,3 C 39,8 km/h (6 Bft)
30/10/2008 03:00 5,2 C 92 % 994,6 hPa 0,0 l/m 30,3 km/h (5 Bft) O-SO 0,00 h 0,025 mm 0 W/m 4,0 C 0,3 C 41,2 km/h (6 Bft)
30/10/2008 04:00 6,1 C 82 % 995,4 hPa 0,0 l/m 29,1 km/h (5 Bft) SO 0,00 h 0,025 mm 0 W/m 3,2 C 1,5 C 38,3 km/h (5 Bft)
30/10/2008 05:00 6,2 C 73 % 996,5 hPa 0,0 l/m 27,6 km/h (4 Bft) SO 0,00 h 0,051 mm 0 W/m 1,7 C 1,9 C 36,6 km/h (5 Bft)
30/10/2008 06:00 5,9 C 70 % 997,3 hPa 0,0 l/m 22,8 km/h (4 Bft) SO 0,00 h 0,076 mm 0 W/m 0,9 C 1,9 C 29,9 km/h (5 Bft)
30/10/2008 07:00 5,6 C 71 % 998,1 hPa 0,0 l/m 23,4 km/h (4 Bft) SO 0,25 h 0,076 mm 30 W/m 0,8 C 1,5 C 30,2 km/h (5 Bft)
30/10/2008 08:00 6,8 C 68 % 999,2 hPa 0,0 l/m 18,1 km/h (3 Bft) SO 0,95 h 0,076 mm 198 W/m 1,2 C 3,6 C 24,1 km/h (4 Bft)
30/10/2008 09:00 9,6 C 52 % 999,6 hPa 0,0 l/m 13,9 km/h (3 Bft) O-SO 0,58 h 0,152 mm 237 W/m 0,2 C 8,3 C 19,8 km/h (3 Bft)
30/10/2008 10:00 10,2 C 52 % 999,9 hPa 0,0 l/m 13,7 km/h (3 Bft) O-SO 0,02 h 0,178 mm 212 W/m 0,7 C 9,4 C 19,0 km/h (3 Bft)
30/10/2008 11:00 11,5 C 54 % 999,5 hPa 0,0 l/m 11,8 km/h (2 Bft) SO 0,07 h 0,178 mm 258 W/m 2,6 C 11,5 C 16,3 km/h (3 Bft)
30/10/2008 12:00 12,1 C 58 % 999,6 hPa 0,0 l/m 14,7 km/h (3 Bft) S-SO 0,67 h 0,203 mm 339 W/m 4,1 C 12,1 C 19,8 km/h (4 Bft)
30/10/2008 13:00 12,0 C 62 % 999,5 hPa 0,0 l/m 15,2 km/h (3 Bft) SO 0,22 h 0,254 mm 220 W/m 4,9 C 12,0 C 20,0 km/h (4 Bft)
30/10/2008 14:00 11,4 C 66 % 999,4 hPa 0,0 l/m 8,6 km/h (2 Bft) SO 0,00 h 0,178 mm 89 W/m 5,3 C 11,4 C 11,9 km/h (2 Bft)
30/10/2008 15:00 10,8 C 74 % 999,9 hPa 0,6 l/m 1,5 km/h (1 Bft) O-SO 0,00 h 0,076 mm 59 W/m 6,3 C 10,8 C 2,3 km/h (1 Bft)
30/10/2008 16:00 10,1 C 83 % 999,5 hPa 0,8 l/m 1,8 km/h (1 Bft) O-SO 0,00 h 0,025 mm 18 W/m 7,2 C 10,0 C 3,1 km/h (1 Bft)
30/10/2008 17:00 9,3 C 88 % 999,4 hPa 3,6 l/m 1,5 km/h (1 Bft) O-NO 0,00 h 0,025 mm 0 W/m 7,3 C 9,3 C 2,8 km/h (1 Bft)
30/10/2008 18:00 8,5 C 89 % 999,9 hPa 0,8 l/m 1,1 km/h (1 Bft) N-NE 0,00 h 0,000 mm 0 W/m 6,8 C 8,4 C 1,8 km/h (1 Bft)
30/10/2008 19:00 8,1 C 90 % 1000,3 hPa 0,0 l/m 3,5 km/h (1 Bft) O-NO 0,00 h 0,000 mm 0 W/m 6,6 C 7,8 C 5,5 km/h (1 Bft)
30/10/2008 20:00 7,6 C 91 % 1000,7 hPa 0,0 l/m 2,3 km/h (1 Bft) SO 0,00 h 0,025 mm 0 W/m 6,3 C 7,4 C 3,5 km/h (1 Bft)
30/10/2008 21:00 7,3 C 92 % 1001,6 hPa 0,0 l/m 5,2 km/h (1 Bft) NO 0,00 h 0,000 mm 0 W/m 6,1 C 6,6 C 7,3 km/h (2 Bft)
30/10/2008 22:00 7,2 C 93 % 1002,2 hPa 0,0 l/m 3,9 km/h (1 Bft) S-SO 0,00 h 0,025 mm 0 W/m 6,1 C 6,7 C 5,3 km/h (1 Bft)
30/10/2008 23:00 7,5 C 94 % 1002,7 hPa 0,0 l/m 7,9 km/h (2 Bft) O-NO 0,00 h 0,000 mm 0 W/m 6,5 C 6,1 C 11,4 km/h (2 Bft)
31/10/2008 00:00 7,5 C 94 % 1002,8 hPa 0,0 l/m 2,3 km/h (1 Bft) NO 0,00 h 0,025 mm 0 W/m 6,6 C 7,4 C 3,4 km/h (1 Bft)
31/10/2008 01:00 7,9 C 94 % 1002,8 hPa 0,2 l/m 3,5 km/h (1 Bft) O 0,00 h 0,000 mm 0 W/m 7,0 C 7,7 C 4,8 km/h (1 Bft)
31/10/2008 02:00 8,1 C 94 % 1002,9 hPa 0,8 l/m 2,8 km/h (1 Bft) NO 0,00 h 0,000 mm 0 W/m 7,2 C 8,0 C 4,3 km/h (1 Bft)
31/10/2008 03:00 8,2 C 94 % 1002,6 hPa 0,6 l/m 0,9 km/h (0 Bft) E-NE 0,00 h 0,000 mm 0 W/m 7,4 C 8,2 C 1,7 km/h (1 Bft)
31/10/2008 04:00 8,3 C 95 % 1002,9 hPa 2,4 l/m 6,4 km/h (2 Bft) O-NO 0,00 h 0,000 mm 0 W/m 7,5 C 7,4 C 9,9 km/h (2 Bft)
31/10/2008 05:00 8,7 C 95 % 1002,9 hPa 7,0 l/m 2,8 km/h (1 Bft) N 0,00 h 0,000 mm 0 W/m 8,0 C 8,5 C 4,4 km/h (1 Bft)
31/10/2008 06:00 8,7 C 95 % 1003,1 hPa 7,0 l/m 4,6 km/h (1 Bft) O-NO 0,00 h 0,000 mm 0 W/m 7,9 C 8,2 C 6,6 km/h (2 Bft)
31/10/2008 07:00 9,4 C 95 % 1003,8 hPa 4,2 l/m 4,4 km/h (1 Bft) N-NE 0,00 h 0,000 mm 6 W/m 8,7 C 9,0 C 7,0 km/h (2 Bft)
31/10/2008 08:00 9,2 C 96 % 1004,7 hPa 0,6 l/m 1,9 km/h (1 Bft) NE 0,00 h 0,000 mm 22 W/m 8,6 C 9,1 C 3,0 km/h (1 Bft)
31/10/2008 09:00 10,0 C 96 % 1005,2 hPa 0,2 l/m 1,1 km/h (0 Bft) NO 0,00 h 0,025 mm 49 W/m 9,4 C 10,0 C 2,1 km/h (1 Bft)
31/10/2008 10:00 11,2 C 96 % 1005,7 hPa 0,6 l/m 0,7 km/h (0 Bft) N 0,00 h 0,025 mm 110 W/m 10,6 C 11,2 C 1,3 km/h (1 Bft)
31/10/2008 11:00 12,8 C 98 % 1006,1 hPa 0,0 l/m 2,2 km/h (1 Bft) N 0,63 h 0,051 mm 299 W/m 12,4 C 12,8 C 4,1 km/h (1 Bft)
31/10/2008 12:00 12,1 C 97 % 1006,0 hPa 0,0 l/m 5,5 km/h (1 Bft) E-NE 0,00 h 0,152 mm 81 W/m 11,6 C 12,1 C 7,3 km/h (2 Bft)
31/10/2008 13:00 10,5 C 97 % 1006,1 hPa 4,8 l/m 5,9 km/h (2 Bft) N-NE 0,00 h 0,051 mm 37 W/m 10,0 C 10,5 C 9,3 km/h (2 Bft)
31/10/2008 14:00 11,4 C 98 % 1005,6 hPa 1,2 l/m 5,3 km/h (1 Bft) N 0,00 h 0,025 mm 54 W/m 11,1 C 11,4 C 8,4 km/h (2 Bft)
31/10/2008 15:00 12,2 C 98 % 1005,5 hPa 0,2 l/m 2,3 km/h (1 Bft) NE 0,00 h 0,025 mm 21 W/m 11,8 C 12,2 C 4,2 km/h (1 Bft)
31/10/2008 16:00 12,0 C 99 % 1005,6 hPa 0,0 l/m 4,2 km/h (1 Bft) N-NE 0,00 h 0,025 mm 28 W/m 11,8 C 12,0 C 6,6 km/h (2 Bft)
31/10/2008 17:00 11,3 C 98 % 1005,7 hPa 4,0 l/m 5,8 km/h (2 Bft) E-SE 0,00 h 0,025 mm 5 W/m 10,9 C 11,3 C 8,5 km/h (2 Bft)
31/10/2008 18:00 11,3 C 98 % 1006,1 hPa 7,2 l/m 4,6 km/h (1 Bft) N 0,00 h 0,000 mm 0 W/m 10,9 C 11,3 C 7,6 km/h (2 Bft)
31/10/2008 19:00 12,5 C 99 % 1005,4 hPa 2,8 l/m 6,8 km/h (2 Bft) N 0,00 h 0,000 mm 0 W/m 12,3 C 12,5 C 12,2 km/h (2 Bft)
31/10/2008 20:00 12,7 C 98 % 1005,0 hPa 0,0 l/m 5,2 km/h (1 Bft) N 0,00 h 0,000 mm 0 W/m 12,4 C 12,7 C 8,6 km/h (2 Bft)
31/10/2008 21:00 12,6 C 98 % 1004,5 hPa 0,0 l/m 3,8 km/h (1 Bft) N 0,00 h 0,000 mm 0 W/m 12,3 C 12,6 C 6,9 km/h (2 Bft)
31/10/2008 22:00 12,4 C 99 % 1004,3 hPa 0,0 l/m 3,5 km/h (1 Bft) N 0,00 h 0,000 mm 0 W/m 12,2 C 12,4 C 6,1 km/h (2 Bft)
31/10/2008 23:00 12,2 C 100 % 1004,6 hPa 0,0 l/m 4,2 km/h (1 Bft) N-NO 0,00 h 0,025 mm 0 W/m 12,2 C 12,2 C 6,7 km/h (2 Bft)
01/11/2008 00:00 12,7 C 100 % 1004,8 hPa 0,0 l/m 5,7 km/h (1 Bft) N-NO 0,00 h 0,000 mm 0 W/m 12,7 C 12,7 C 7,8 km/h (2 Bft)
01/11/2008 01:00 12,7 C 100 % 1004,5 hPa 0,0 l/m 9,4 km/h (2 Bft) O 0,00 h 0,000 mm 0 W/m 12,7 C 12,7 C 12,9 km/h (3 Bft)
01/11/2008 02:00 11,9 C 98 % 1004,3 hPa 0,0 l/m 3,4 km/h (1 Bft) O-NO 0,00 h 0,025 mm 0 W/m 11,6 C 11,9 C 5,3 km/h (1 Bft)
01/11/2008 03:00 11,6 C 98 % 1004,4 hPa 0,0 l/m 2,8 km/h (1 Bft) O-NO 0,00 h 0,000 mm 0 W/m 11,3 C 11,6 C 4,4 km/h (1 Bft)
01/11/2008 04:00 11,0 C 97 % 1004,7 hPa 0,0 l/m 3,5 km/h (1 Bft) N-NO 0,00 h 0,000 mm 0 W/m 10,6 C 11,0 C 4,8 km/h (1 Bft)
01/11/2008 05:00 11,3 C 97 % 1004,9 hPa 0,0 l/m 6,6 km/h (2 Bft) O 0,00 h 0,000 mm 0 W/m 10,8 C 11,3 C 8,6 km/h (2 Bft)
01/11/2008 06:00 10,8 C 95 % 1005,7 hPa 0,0 l/m 9,3 km/h (2 Bft) O-NO 0,00 h 0,000 mm 0 W/m 10,1 C 10,8 C 12,3 km/h (3 Bft)
01/11/2008 07:00 11,5 C 95 % 1006,6 hPa 0,0 l/m 9,4 km/h (2 Bft) O-NO 0,70 h 0,000 mm 49 W/m 10,7 C 11,5 C 12,4 km/h (3 Bft)
01/11/2008 08:00 13,5 C 98 % 1007,5 hPa 0,0 l/m 1,1 km/h (0 Bft) O-NO 0,83 h 0,051 mm 167 W/m 13,2 C 13,5 C 1,9 km/h (1 Bft)
01/11/2008 09:00 15,8 C 98 % 1008,0 hPa 0,0 l/m 6,7 km/h (2 Bft) N-NO 0,95 h 0,076 mm 299 W/m 15,5 C 15,8 C 9,5 km/h (2 Bft)
01/11/2008 10:00 16,5 C 100 % 1008,7 hPa 0,2 l/m 9,7 km/h (2 Bft) SO 0,62 h 0,178 mm 277 W/m 16,5 C 16,5 C 13,4 km/h (3 Bft)
01/11/2008 11:00 16,8 C 100 % 1009,4 hPa 0,0 l/m 8,9 km/h (2 Bft) S 0,42 h 0,000 mm 323 W/m 16,8 C 16,8 C 12,5 km/h (3 Bft)
01/11/2008 12:00 16,9 C 100 % 1009,7 hPa 0,0 l/m 6,9 km/h (2 Bft) S 0,32 h 0,000 mm 281 W/m 16,9 C 16,9 C 9,5 km/h (2 Bft)
01/11/2008 13:00 17,6 C 100 % 1009,5 hPa 0,0 l/m 5,0 km/h (1 Bft) S-SE 0,85 h 0,000 mm 387 W/m 17,6 C 17,6 C 7,3 km/h (2 Bft)
01/11/2008 14:00 17,7 C 100 % 1009,4 hPa 0,0 l/m 2,6 km/h (1 Bft) E 0,55 h 0,000 mm 232 W/m 17,7 C 17,7 C 4,6 km/h (1 Bft)
01/11/2008 15:00 16,9 C 100 % 1009,9 hPa 0,0 l/m 5,2 km/h (1 Bft) S 0,47 h 0,000 mm 161 W/m 16,9 C 16,9 C 7,9 km/h (2 Bft)
01/11/2008 16:00 16,3 C 99 % 1010,6 hPa 0,0 l/m 1,5 km/h (1 Bft) S 0,13 h 0,000 mm 63 W/m 16,1 C 16,3 C 2,9 km/h (1 Bft)
01/11/2008 17:00 15,1 C 88 % 1011,3 hPa 0,0 l/m 1,8 km/h (1 Bft) SE 0,08 h 0,051 mm 13 W/m 13,1 C 15,1 C 2,8 km/h (1 Bft)
01/11/2008 18:00 14,4 C 87 % 1011,9 hPa 0,0 l/m 0,6 km/h (0 Bft) N-NO 0,00 h 0,000 mm 0 W/m 12,4 C 14,4 C 1,3 km/h (1 Bft)
01/11/2008 19:00 13,7 C 88 % 1012,2 hPa 0,0 l/m 1,0 km/h (0 Bft) N-NE 0,00 h 0,025 mm 0 W/m 11,8 C 13,7 C 2,3 km/h (1 Bft)
01/11/2008 20:00 13,7 C 89 % 1012,5 hPa 0,0 l/m 1,5 km/h (1 Bft) N 0,00 h 0,025 mm 0 W/m 11,9 C 13,7 C 3,1 km/h (1 Bft)
01/11/2008 21:00 13,4 C 90 % 1013,0 hPa 0,0 l/m 1,6 km/h (1 Bft) N 0,00 h 0,025 mm 0 W/m 11,8 C 13,4 C 3,0 km/h (1 Bft)
01/11/2008 22:00 13,2 C 91 % 1013,2 hPa 0,0 l/m 2,1 km/h (1 Bft) N-NE 0,00 h 0,025 mm 0 W/m 11,8 C 13,2 C 3,4 km/h (1 Bft)
01/11/2008 23:00 12,9 C 91 % 1013,2 hPa 0,0 l/m 3,6 km/h (1 Bft) N-NE 0,00 h 0,025 mm 0 W/m 11,4 C 12,9 C 5,0 km/h (1 Bft)
02/11/2008 00:00 12,5 C 91 % 1013,2 hPa 0,0 l/m 4,9 km/h (1 Bft) N-NE 0,00 h 0,025 mm 0 W/m 11,1 C 12,5 C 6,9 km/h (2 Bft)
02/11/2008 01:00 12,2 C 91 % 1013,3 hPa 0,0 l/m 5,4 km/h (1 Bft) NE 0,00 h 0,025 mm 0 W/m 10,7 C 12,2 C 7,5 km/h (2 Bft)
02/11/2008 02:00 12,2 C 90 % 1013,3 hPa 0,0 l/m 6,1 km/h (2 Bft) N 0,00 h 0,025 mm 0 W/m 10,6 C 12,2 C 10,4 km/h (2 Bft)
02/11/2008 03:00 12,5 C 89 % 1012,9 hPa 0,0 l/m 7,3 km/h (2 Bft) N 0,00 h 0,025 mm 0 W/m 10,7 C 12,5 C 11,7 km/h (2 Bft)
02/11/2008 04:00 13,4 C 85 % 1012,6 hPa 0,0 l/m 8,3 km/h (2 Bft) N-NE 0,00 h 0,025 mm 0 W/m 10,8 C 13,4 C 13,2 km/h (3 Bft)
02/11/2008 05:00 12,9 C 82 % 1012,6 hPa 0,0 l/m 4,1 km/h (1 Bft) N 0,00 h 0,025 mm 0 W/m 9,9 C 12,9 C 6,5 km/h (2 Bft)
02/11/2008 06:00 12,3 C 82 % 1012,5 hPa 0,0 l/m 5,5 km/h (1 Bft) N-NE 0,00 h 0,025 mm 5 W/m 9,4 C 12,3 C 8,4 km/h (2 Bft)
02/11/2008 07:00 14,1 C 77 % 1012,7 hPa 0,0 l/m 10,1 km/h (2 Bft) N-NE 0,00 h 0,025 mm 17 W/m 10,2 C 14,1 C 15,3 km/h (3 Bft)
02/11/2008 08:00 15,5 C 75 % 1013,0 hPa 0,0 l/m 12,9 km/h (3 Bft) NE 0,00 h 0,051 mm 70 W/m 11,0 C 15,5 C 18,7 km/h (3 Bft)
02/11/2008 09:00 16,6 C 77 % 1013,0 hPa 0,0 l/m 14,7 km/h (3 Bft) NE 0,27 h 0,076 mm 176 W/m 12,5 C 16,6 C 20,7 km/h (4 Bft)
02/11/2008 10:00 17,9 C 78 % 1012,8 hPa 0,0 l/m 21,8 km/h (4 Bft) E-NE 0,25 h 0,152 mm 217 W/m 13,9 C 17,9 C 29,8 km/h (5 Bft)
02/11/2008 11:00 18,7 C 77 % 1012,6 hPa 0,0 l/m 32,9 km/h (5 Bft) E-NE 0,33 h 0,203 mm 298 W/m 14,5 C 18,7 C 45,6 km/h (6 Bft)
02/11/2008 12:00 18,5 C 78 % 1012,3 hPa 0,0 l/m 33,4 km/h (5 Bft) E-NE 0,40 h 0,279 mm 302 W/m 14,5 C 18,5 C 47,0 km/h (6 Bft)
02/11/2008 13:00 18,8 C 74 % 1012,0 hPa 0,0 l/m 32,6 km/h (5 Bft) E-NE 0,63 h 0,279 mm 356 W/m 14,2 C 18,8 C 45,3 km/h (6 Bft)
02/11/2008 14:00 18,2 C 73 % 1011,5 hPa 0,0 l/m 33,2 km/h (5 Bft) E-NE 0,02 h 0,330 mm 134 W/m 13,3 C 18,2 C 45,7 km/h (6 Bft)
02/11/2008 15:00 18,4 C 74 % 1011,1 hPa 0,0 l/m 27,7 km/h (4 Bft) E-NE 0,50 h 0,203 mm 174 W/m 13,7 C 18,4 C 39,2 km/h (6 Bft)
02/11/2008 16:00 18,0 C 77 % 1010,8 hPa 0,0 l/m 25,3 km/h (4 Bft) E-NE 0,03 h 0,203 mm 35 W/m 13,9 C 18,0 C 35,6 km/h (5 Bft)
02/11/2008 17:00 17,8 C 82 % 1010,3 hPa 0,0 l/m 25,8 km/h (4 Bft) E-NE 0,00 h 0,102 mm 5 W/m 14,7 C 17,8 C 35,8 km/h (5 Bft)
02/11/2008 18:00 17,8 C 87 % 1010,3 hPa 0,0 l/m 28,8 km/h (5 Bft) E-NE 0,00 h 0,076 mm 0 W/m 15,5 C 17,8 C 39,6 km/h (6 Bft)
02/11/2008 19:00 17,7 C 90 % 1009,9 hPa 0,6 l/m 28,3 km/h (4 Bft) E-NE 0,00 h 0,076 mm 0 W/m 16,2 C 17,7 C 38,2 km/h (5 Bft)
02/11/2008 20:00 16,3 C 92 % 1010,7 hPa 1,8 l/m 16,2 km/h (3 Bft) E 0,00 h 0,051 mm 0 W/m 15,1 C 16,3 C 23,8 km/h (4 Bft)
02/11/2008 21:00 13,4 C 93 % 1011,9 hPa 3,6 l/m 9,4 km/h (2 Bft) O-NO 0,00 h 0,025 mm 0 W/m 12,3 C 13,4 C 13,3 km/h (3 Bft)
02/11/2008 22:00 12,9 C 93 % 1012,0 hPa 0,2 l/m 3,3 km/h (1 Bft) O-NO 0,00 h 0,025 mm 0 W/m 11,8 C 12,9 C 5,2 km/h (1 Bft)
02/11/2008 23:00 12,5 C 94 % 1011,8 hPa 0,0 l/m 5,3 km/h (1 Bft) N-NO 0,00 h 0,025 mm 0 W/m 11,5 C 12,5 C 8,5 km/h (2 Bft)
Min-Date _ 30/10/08 27/10/08 30/10/08 - 27/10/08 - - - - 30/10/08 30/10/08 27/10/08
_ Min-Heure 02:28 13:08 02:15 - 00:02 - - - - 09:22 03:31 00:02
Minimum _ 5,0 C 44 % 993,9 hPa - 0,0 km/h (0 Bft) - - - - -0,7 C -0,5 C 0,0 km/h (0 Bft)
Max-Date _ 27/10/08 31/10/08 27/10/08 28/10/08 02/11/08 - 27/10/08 27/10/08 28/10/08 01/11/08 27/10/08 02/11/08
_ Max-Heure 13:01 11:35 00:00 17:41 12:18 - 07:11 13:00 11:39 13:54 13:01 11:56
Maximum _ 22,3 C 100 % 1018,4 hPa 10,6 l/m 48,3 km/h
E-NE (6 Bft)
- 0,02 h 0,406 mm 728 W/m 18,8 C 22,3 C 64,4 km/h
E-NE (8 Bft)
Moyenne _ 13,3 C 87 % 1005,3 hPa #94,2 l/m 8,3 km/h (2 Bft) SO #24:19 h #9,960 mm 157 W/m 10,9 C 13,1 C 11,6 km/h (2 Bft)
Roquefort les pins